San Francisco, California
Traffic Map
Current Weather Conditions
San Francisco, California
Overcast
Overcast
60°
Feels Like: 60°
Wind Chill: 60° Ceiling: 1400
Heat Index: 60° Visibility: 10mi
Dew Point: 53° Wind: 10mph
Humidity: 78% Direction: 280° (W)
Pressure: 30.02in Gusts: 0mph
Raw Report DataKSFO 260956Z 28009KT 10SM OVC014 16/12 A3002 RMK AO2 SLP165 T01560117 $
Traffic Incident Summary
Active as of:
Severity:
Category:
InformationThere was an issue retrieving the traffic information for this location. Please try a different location or try again shortly.
Advertisements
Track Severe Weather on mobile